Time;durP1;ratioP1;P1;durP2;ratioP2;P2;SDS_P1;SDS_P2;PMS_P1;PMS_P2;Temp;Humidity;BMP_temperature;BMP_pressure;BME280_temperature;BME280_humidity;BME280_pressure;Samples;Min_cycle;Max_cycle;Signal;HPM_P1;HPM_P2
2022/03/15 00:00:32;;;;;;;11.35;5.57;;;;;;;;;;4992716;28;20188;-84
2022/03/15 00:02:58;;;;;;;10.38;5.60;;;;;;;;;;4995957;28;20286;-84
2022/03/15 00:05:24;;;;;;;11.23;5.80;;;;;;;;;;4995792;28;20191;-84
2022/03/15 00:07:50;;;;;;;9.90;5.47;;;;;;;;;;5014477;28;20207;-84
2022/03/15 00:10:18;;;;;;;8.75;4.85;;;;;;;;;;5004566;28;20229;-84
2022/03/15 00:12:44;;;;;;;10.07;5.15;;;;;;;;;;5002604;28;20516;-85
2022/03/15 00:15:11;;;;;;;7.68;4.95;;;;;;;;;;4997697;28;20190;-84
2022/03/15 00:17:38;;;;;;;11.45;5.82;;;;;;;;;;4999790;28;20191;-84
2022/03/15 00:20:05;;;;;;;16.85;6.00;;;;;;;;;;5001918;28;20187;-83
2022/03/15 00:22:35;;;;;;;16.30;5.97;;;;;;;;;;5001069;28;20644;-84
2022/03/15 00:25:05;;;;;;;9.15;5.30;;;;;;;;;;5015579;28;20215;-84
2022/03/15 00:27:31;;;;;;;14.93;6.03;;;;;;;;;;5016788;28;20214;-84
2022/03/15 00:29:57;;;;;;;12.73;6.35;;;;;;;;;;5014281;28;20183;-84
2022/03/15 00:32:24;;;;;;;14.18;5.88;;;;;;;;;;5003943;28;20191;-85
2022/03/15 00:34:50;;;;;;;7.35;5.22;;;;;;;;;;5019093;28;20206;-84
2022/03/15 00:37:16;;;;;;;11.85;5.13;;;;;;;;;;5004854;28;20621;-84
2022/03/15 00:39:42;;;;;;;13.95;6.00;;;;;;;;;;5002837;28;20242;-85
2022/03/15 00:42:08;;;;;;;9.48;5.13;;;;;;;;;;5014036;28;20210;-84
2022/03/15 00:44:34;;;;;;;9.55;5.13;;;;;;;;;;5002120;28;20254;-84
2022/03/15 00:47:01;;;;;;;14.52;6.15;;;;;;;;;;4986661;28;20203;-84
2022/03/15 00:49:27;;;;;;;8.15;5.47;;;;;;;;;;5007667;28;20517;-84
2022/03/15 00:51:54;;;;;;;8.68;5.45;;;;;;;;;;5016396;28;20184;-84
2022/03/15 00:54:23;;;;;;;7.75;4.70;;;;;;;;;;5007686;28;20637;-84
2022/03/15 00:56:49;;;;;;;7.38;4.80;;;;;;;;;;4993781;28;20278;-84
2022/03/15 00:59:15;;;;;;;7.57;4.88;;;;;;;;;;5001043;28;20187;-83
2022/03/15 01:01:41;;;;;;;8.45;5.63;;;;;;;;;;5003166;28;20644;-84
2022/03/15 01:04:07;;;;;;;8.60;5.05;;;;;;;;;;5019803;28;20182;-83
2022/03/15 01:06:38;;;;;;;10.93;5.50;;;;;;;;;;5013096;28;20265;-83
2022/03/15 01:09:04;;;;;;;10.43;4.75;;;;;;;;;;5010712;28;20187;-84
2022/03/15 01:11:30;;;;;;;8.95;4.72;;;;;;;;;;5002282;28;20258;-85
2022/03/15 01:13:56;;;;;;;10.98;5.47;;;;;;;;;;4986677;28;20190;-85
2022/03/15 01:16:22;;;;;;;6.43;4.43;;;;;;;;;;5017973;28;20254;-85
2022/03/15 01:18:48;;;;;;;8.38;4.25;;;;;;;;;;5003259;28;20186;-85
2022/03/15 01:21:14;;;;;;;7.32;3.72;;;;;;;;;;4996093;28;20192;-85
2022/03/15 01:23:41;;;;;;;10.52;4.30;;;;;;;;;;4994074;28;20188;-84
2022/03/15 01:26:07;;;;;;;5.68;4.00;;;;;;;;;;5013305;28;20258;-85
2022/03/15 01:28:33;;;;;;;8.00;4.80;;;;;;;;;;5018144;28;20242;-85
2022/03/15 01:30:59;;;;;;;6.25;4.55;;;;;;;;;;5020097;28;20182;-84
2022/03/15 01:33:26;;;;;;;5.82;4.30;;;;;;;;;;5002040;28;20266;-84
2022/03/15 01:35:53;;;;;;;10.77;4.80;;;;;;;;;;5013656;28;20284;-84
2022/03/15 01:38:19;;;;;;;12.05;4.38;;;;;;;;;;4991407;28;20210;-84
2022/03/15 01:40:45;;;;;;;8.82;4.82;;;;;;;;;;5018474;28;20238;-84
2022/03/15 01:43:12;;;;;;;7.28;4.20;;;;;;;;;;5019975;28;20278;-85
2022/03/15 01:45:38;;;;;;;8.25;5.03;;;;;;;;;;5013485;28;20681;-85
2022/03/15 01:48:05;;;;;;;11.55;4.75;;;;;;;;;;5013734;28;20217;-84
2022/03/15 01:50:31;;;;;;;10.27;5.38;;;;;;;;;;5017376;28;20182;-85
2022/03/15 01:52:57;;;;;;;7.90;4.25;;;;;;;;;;5018228;28;20191;-85
2022/03/15 01:55:23;;;;;;;6.32;4.30;;;;;;;;;;5018937;28;20237;-84
2022/03/15 01:57:50;;;;;;;8.02;4.63;;;;;;;;;;5021184;28;20179;-84
2022/03/15 02:00:17;;;;;;;6.78;3.90;;;;;;;;;;4999317;28;20191;-84
2022/03/15 02:02:43;;;;;;;8.95;3.83;;;;;;;;;;4994261;28;20187;-85
2022/03/15 02:05:09;;;;;;;8.32;4.82;;;;;;;;;;4992026;28;20186;-86
2022/03/15 02:07:35;;;;;;;7.60;4.70;;;;;;;;;;5010080;28;20213;-85
2022/03/15 02:10:01;;;;;;;6.57;3.90;;;;;;;;;;5019750;28;20176;-85
2022/03/15 02:12:28;;;;;;;8.13;3.83;;;;;;;;;;5006014;28;20474;-85
2022/03/15 02:14:57;;;;;;;8.82;4.63;;;;;;;;;;5017158;28;20190;-85
2022/03/15 02:17:23;;;;;;;7.47;4.72;;;;;;;;;;5005350;28;20183;-85
2022/03/15 02:19:49;;;;;;;10.68;4.00;;;;;;;;;;5021079;28;20187;-85
2022/03/15 02:22:15;;;;;;;6.85;4.03;;;;;;;;;;5022213;28;20218;-85
2022/03/15 02:24:42;;;;;;;7.07;4.13;;;;;;;;;;5016612;28;20191;-85
2022/03/15 02:27:08;;;;;;;6.97;3.85;;;;;;;;;;5004966;28;20198;-84
2022/03/15 02:29:34;;;;;;;7.95;3.92;;;;;;;;;;5016659;28;20183;-85
2022/03/15 02:32:00;;;;;;;6.13;3.40;;;;;;;;;;5006144;28;20183;-86
2022/03/15 02:34:26;;;;;;;9.05;4.00;;;;;;;;;;5021005;28;20235;-84
2022/03/15 02:36:52;;;;;;;7.50;4.07;;;;;;;;;;4995085;28;20180;-85
2022/03/15 02:39:18;;;;;;;6.40;3.43;;;;;;;;;;5000309;28;20310;-85
2022/03/15 02:41:44;;;;;;;10.63;4.50;;;;;;;;;;5004794;28;20461;-84
2022/03/15 02:44:11;;;;;;;7.63;4.38;;;;;;;;;;5017680;28;20211;-84
2022/03/15 02:46:43;;;;;;;4.90;3.15;;;;;;;;;;4988453;28;20196;-84
2022/03/15 02:49:09;;;;;;;7.10;3.60;;;;;;;;;;5005857;28;20432;-84
2022/03/15 02:51:35;;;;;;;6.38;3.90;;;;;;;;;;4994215;28;20741;-84
2022/03/15 02:54:07;;;;;;;5.93;3.70;;;;;;;;;;4994268;28;20555;-84
2022/03/15 02:56:39;;;;;;;5.55;3.90;;;;;;;;;;4992725;28;20551;-84
2022/03/15 02:59:05;;;;;;;5.25;3.60;;;;;;;;;;4991044;28;20187;-84
2022/03/15 03:01:32;;;;;;;6.68;4.75;;;;;;;;;;5004550;28;20461;-85
2022/03/15 03:03:58;;;;;;;6.07;4.03;;;;;;;;;;5018095;28;20289;-85
2022/03/15 03:06:24;;;;;;;10.65;4.70;;;;;;;;;;5019363;28;20265;-86
2022/03/15 03:08:51;;;;;;;6.25;3.05;;;;;;;;;;5014131;28;20184;-86
2022/03/15 03:11:17;;;;;;;8.10;3.80;;;;;;;;;;5003882;28;20179;-84
2022/03/15 03:13:44;;;;;;;18.30;4.60;;;;;;;;;;5020235;28;20248;-84
2022/03/15 03:16:12;;;;;;;7.07;3.65;;;;;;;;;;5005517;28;20171;-85
2022/03/15 03:18:38;;;;;;;8.75;3.90;;;;;;;;;;5015503;28;20214;-84
2022/03/15 03:21:05;;;;;;;6.45;3.25;;;;;;;;;;5016561;28;20179;-85
2022/03/15 03:23:32;;;;;;;7.82;3.60;;;;;;;;;;4996969;28;20655;-85
2022/03/15 03:25:59;;;;;;;12.43;4.15;;;;;;;;;;4990255;28;20187;-86
2022/03/15 03:28:27;;;;;;;5.95;3.63;;;;;;;;;;5021518;28;20183;-85
2022/03/15 03:30:53;;;;;;;8.00;3.83;;;;;;;;;;5004407;28;20181;-85
2022/03/15 03:33:20;;;;;;;5.25;3.08;;;;;;;;;;4999056;28;20210;-85
2022/03/15 03:35:49;;;;;;;7.18;3.75;;;;;;;;;;5014134;28;20183;-85
2022/03/15 03:38:15;;;;;;;6.50;4.47;;;;;;;;;;5013125;28;20959;-85
2022/03/15 03:40:41;;;;;;;7.65;3.75;;;;;;;;;;5012443;28;20247;-85
2022/03/15 03:43:07;;;;;;;7.47;4.50;;;;;;;;;;4991902;28;20191;-85
2022/03/15 03:45:36;;;;;;;5.78;3.45;;;;;;;;;;5016823;28;20554;-85
2022/03/15 03:48:02;;;;;;;7.88;3.83;;;;;;;;;;5015694;28;20389;-85
2022/03/15 03:50:28;;;;;;;6.25;3.90;;;;;;;;;;5015178;28;20202;-85
2022/03/15 03:52:54;;;;;;;7.38;3.30;;;;;;;;;;4987397;28;20199;-85
2022/03/15 03:55:20;;;;;;;7.70;4.20;;;;;;;;;;4990102;28;20172;-85
2022/03/15 03:57:46;;;;;;;7.50;4.05;;;;;;;;;;5002532;28;20186;-85
2022/03/15 04:00:12;;;;;;;6.43;4.20;;;;;;;;;;5004631;28;20273;-86
2022/03/15 04:02:38;;;;;;;5.20;4.70;;;;;;;;;;5013673;28;20446;-86
2022/03/15 04:05:04;;;;;;;7.53;3.20;;;;;;;;;;4989692;28;20270;-86
2022/03/15 04:07:30;;;;;;;5.82;3.50;;;;;;;;;;5018482;28;20298;-86
2022/03/15 04:09:56;;;;;;;5.78;4.65;;;;;;;;;;5020385;28;20171;-87
2022/03/15 04:12:23;;;;;;;10.65;4.28;;;;;;;;;;5014459;28;20278;-87
2022/03/15 04:14:49;;;;;;;6.78;3.80;;;;;;;;;;5014985;28;20175;-87
2022/03/15 04:17:15;;;;;;;5.28;3.85;;;;;;;;;;5002841;28;20222;-86
2022/03/15 04:19:42;;;;;;;6.68;4.03;;;;;;;;;;5003661;28;20718;-87
2022/03/15 04:22:08;;;;;;;7.28;4.50;;;;;;;;;;5020375;28;20354;-84
2022/03/15 04:24:34;;;;;;;4.63;3.50;;;;;;;;;;5014669;28;20199;-85
2022/03/15 04:27:00;;;;;;;8.13;4.57;;;;;;;;;;5014167;28;20310;-85
2022/03/15 04:29:26;;;;;;;8.25;4.13;;;;;;;;;;5008709;28;20189;-85
2022/03/15 04:31:53;;;;;;;9.13;4.35;;;;;;;;;;4988105;28;20191;-85
2022/03/15 04:34:19;;;;;;;7.25;4.50;;;;;;;;;;5020616;28;20175;-85
2022/03/15 04:36:45;;;;;;;7.65;3.63;;;;;;;;;;5002847;28;20191;-84
2022/03/15 04:39:12;;;;;;;7.03;3.42;;;;;;;;;;5000301;28;20290;-85
2022/03/15 04:41:38;;;;;;;6.63;3.55;;;;;;;;;;5002730;28;20242;-85
2022/03/15 04:44:04;;;;;;;4.50;3.75;;;;;;;;;;5003810;28;20248;-86
2022/03/15 04:46:30;;;;;;;4.00;3.55;;;;;;;;;;5003084;28;20201;-85
2022/03/15 04:48:56;;;;;;;7.50;4.30;;;;;;;;;;5016872;28;20179;-85
2022/03/15 04:51:24;;;;;;;6.13;4.95;;;;;;;;;;5006311;28;20246;-84
2022/03/15 04:53:50;;;;;;;6.50;4.80;;;;;;;;;;4994552;28;20175;-84
2022/03/15 04:56:16;;;;;;;9.00;4.70;;;;;;;;;;5001478;28;20262;-84
2022/03/15 04:58:42;;;;;;;5.15;4.05;;;;;;;;;;5017755;28;20188;-84
2022/03/15 05:01:08;;;;;;;7.30;4.22;;;;;;;;;;5016347;28;20176;-85
2022/03/15 05:03:35;;;;;;;6.78;4.38;;;;;;;;;;5001271;28;20189;-87
2022/03/15 05:06:02;;;;;;;7.45;4.05;;;;;;;;;;5013449;28;20231;-86
2022/03/15 05:08:30;;;;;;;11.93;4.25;;;;;;;;;;5007177;28;20215;-86
2022/03/15 05:11:06;;;;;;;9.32;4.53;;;;;;;;;;4987048;28;20275;-86
2022/03/15 05:13:36;;;;;;;5.85;4.43;;;;;;;;;;5018087;28;20190;-86
2022/03/15 05:16:03;;;;;;;7.93;5.05;;;;;;;;;;5018263;28;20171;-86
2022/03/15 05:18:29;;;;;;;11.30;5.13;;;;;;;;;;4996788;28;20190;-86
2022/03/15 05:20:55;;;;;;;8.43;4.60;;;;;;;;;;5012700;28;20281;-85
2022/03/15 05:23:21;;;;;;;11.10;5.13;;;;;;;;;;5014365;28;20192;-86
2022/03/15 05:25:47;;;;;;;6.10;4.65;;;;;;;;;;5000769;28;20438;-86
2022/03/15 05:28:13;;;;;;;9.30;4.97;;;;;;;;;;4989674;28;20204;-86
2022/03/15 05:30:39;;;;;;;7.47;5.00;;;;;;;;;;4993650;28;20190;-86
2022/03/15 05:33:06;;;;;;;9.02;5.25;;;;;;;;;;4995652;28;20200;-86
2022/03/15 05:35:32;;;;;;;6.43;4.75;;;;;;;;;;4990762;28;20720;-85
2022/03/15 05:37:58;;;;;;;6.73;5.87;;;;;;;;;;5002087;28;20214;-86
2022/03/15 05:40:25;;;;;;;5.55;4.72;;;;;;;;;;5018081;28;20472;-85
2022/03/15 05:42:51;;;;;;;10.55;5.70;;;;;;;;;;5003540;28;20179;-85
2022/03/15 05:45:17;;;;;;;7.80;4.90;;;;;;;;;;5017863;28;20366;-86
2022/03/15 05:47:43;;;;;;;6.82;5.25;;;;;;;;;;4996848;28;20253;-86
2022/03/15 05:50:09;;;;;;;10.73;5.68;;;;;;;;;;5010785;28;20220;-86
2022/03/15 05:52:35;;;;;;;6.25;5.18;;;;;;;;;;4998616;28;20179;-87
2022/03/15 05:55:01;;;;;;;9.95;5.82;;;;;;;;;;5017199;28;20180;-87
2022/03/15 05:57:27;;;;;;;11.05;6.13;;;;;;;;;;5015671;28;20470;-87
2022/03/15 05:59:53;;;;;;;6.72;4.90;;;;;;;;;;5014419;28;20183;-87
2022/03/15 06:02:19;;;;;;;8.88;5.95;;;;;;;;;;5014222;28;20186;-87
2022/03/15 06:04:45;;;;;;;7.72;5.68;;;;;;;;;;4987423;28;20574;-88
2022/03/15 06:07:11;;;;;;;9.82;6.22;;;;;;;;;;5018046;28;20215;-87
2022/03/15 06:09:37;;;;;;;11.32;6.43;;;;;;;;;;5002337;28;20214;-88
2022/03/15 06:12:03;;;;;;;10.95;6.70;;;;;;;;;;5001053;28;20183;-88
2022/03/15 06:14:29;;;;;;;9.40;6.50;;;;;;;;;;5013518;28;20271;-88
2022/03/15 06:16:55;;;;;;;6.38;5.63;;;;;;;;;;5006357;28;20230;-88
2022/03/15 06:19:21;;;;;;;11.30;6.80;;;;;;;;;;5003119;28;20233;-85
2022/03/15 06:21:50;;;;;;;12.98;7.35;;;;;;;;;;5015596;28;20641;-88
2022/03/15 06:24:17;;;;;;;11.25;6.95;;;;;;;;;;5017787;28;20187;-88
2022/03/15 06:26:43;;;;;;;10.52;6.80;;;;;;;;;;5000329;28;20207;-87
2022/03/15 06:29:10;;;;;;;8.82;6.05;;;;;;;;;;4991515;28;20660;-86
2022/03/15 06:31:36;;;;;;;13.30;6.75;;;;;;;;;;5001334;28;20266;-89
2022/03/15 06:34:04;;;;;;;10.75;5.35;;;;;;;;;;4989682;28;20268;-89
2022/03/15 06:36:30;;;;;;;12.57;7.00;;;;;;;;;;4994970;28;20187;-89
2022/03/15 06:38:57;;;;;;;12.13;7.18;;;;;;;;;;5000098;28;20330;-88
2022/03/15 06:41:23;;;;;;;12.38;6.90;;;;;;;;;;5005492;28;20217;-88
2022/03/15 06:43:49;;;;;;;14.15;7.00;;;;;;;;;;5004801;28;20565;-88
2022/03/15 06:46:15;;;;;;;9.03;5.77;;;;;;;;;;5022318;28;20183;-88
2022/03/15 06:48:41;;;;;;;9.47;6.73;;;;;;;;;;5011450;28;20465;-89
2022/03/15 06:51:07;;;;;;;10.93;7.80;;;;;;;;;;5012765;28;20431;-89
2022/03/15 06:53:33;;;;;;;12.05;7.68;;;;;;;;;;5003200;28;20190;-89
2022/03/15 06:55:59;;;;;;;12.13;9.00;;;;;;;;;;5008788;28;20449;-87
2022/03/15 06:58:25;;;;;;;17.73;10.52;;;;;;;;;;5005774;28;20183;-89
2022/03/15 07:00:54;;;;;;;16.75;10.40;;;;;;;;;;4994402;28;20206;-89
2022/03/15 07:03:20;;;;;;;10.63;7.53;;;;;;;;;;5005604;28;20589;-90
2022/03/15 07:05:45;;;;;;;10.60;6.78;;;;;;;;;;5002364;28;20188;-90
2022/03/15 07:08:12;;;;;;;10.77;8.43;;;;;;;;;;4991125;28;20318;-89
2022/03/15 07:10:38;;;;;;;10.93;7.60;;;;;;;;;;5004907;28;20500;-88
2022/03/15 07:13:04;;;;;;;12.77;7.78;;;;;;;;;;5021632;28;20172;-89
2022/03/15 07:15:30;;;;;;;9.75;7.15;;;;;;;;;;4999849;28;20183;-89
2022/03/15 07:17:57;;;;;;;11.93;6.90;;;;;;;;;;4999038;28;20215;-89
2022/03/15 07:20:24;;;;;;;15.25;8.90;;;;;;;;;;5012221;28;20198;-88
2022/03/15 07:22:50;;;;;;;9.32;7.40;;;;;;;;;;5005744;28;20194;-91
2022/03/15 07:25:17;;;;;;;10.00;7.60;;;;;;;;;;4999919;28;20194;-90
2022/03/15 07:27:43;;;;;;;13.52;7.55;;;;;;;;;;4998335;28;20665;-89
2022/03/15 07:30:09;;;;;;;11.13;7.57;;;;;;;;;;5028443;28;20191;-90
2022/03/15 07:32:35;;;;;;;15.45;7.90;;;;;;;;;;5001232;28;20188;-91
2022/03/15 07:35:02;;;;;;;14.32;7.88;;;;;;;;;;5004044;28;20345;-91
2022/03/15 07:37:28;;;;;;;15.00;9.35;;;;;;;;;;5010391;28;20174;-90
2022/03/15 07:39:54;;;;;;;13.57;8.93;;;;;;;;;;5027988;28;20215;-89
2022/03/15 07:42:21;;;;;;;21.63;10.05;;;;;;;;;;5026565;28;20202;-92
2022/03/15 07:44:47;;;;;;;16.58;9.73;;;;;;;;;;5017639;28;20198;-89
2022/03/15 07:47:14;;;;;;;18.67;8.13;;;;;;;;;;5020663;28;20215;-88
2022/03/15 07:49:40;;;;;;;9.80;7.90;;;;;;;;;;4988936;28;20167;-89
2022/03/15 07:52:06;;;;;;;9.45;7.90;;;;;;;;;;5021476;28;20583;-90
2022/03/15 07:54:32;;;;;;;12.93;9.10;;;;;;;;;;5015634;28;20183;-88
2022/03/15 07:56:58;;;;;;;13.70;9.75;;;;;;;;;;5007146;28;20195;-89
2022/03/15 07:59:24;;;;;;;14.60;10.38;;;;;;;;;;5002405;28;20214;-89
2022/03/15 08:01:50;;;;;;;13.23;10.02;;;;;;;;;;5011058;28;20542;-89
2022/03/15 08:04:16;;;;;;;11.93;9.07;;;;;;;;;;5020184;28;20178;-86
2022/03/15 08:06:42;;;;;;;14.38;9.55;;;;;;;;;;4992929;28;20259;-88
2022/03/15 08:09:08;;;;;;;14.75;9.80;;;;;;;;;;4997376;28;20259;-87
2022/03/15 08:11:40;;;;;;;17.98;10.48;;;;;;;;;;4997915;28;20192;-86
2022/03/15 08:14:09;;;;;;;18.17;11.35;;;;;;;;;;5017176;28;20179;-86
2022/03/15 08:16:35;;;;;;;22.45;11.10;;;;;;;;;;5002397;28;20279;-86
2022/03/15 08:19:01;;;;;;;21.35;10.85;;;;;;;;;;5000564;28;20187;-85
2022/03/15 08:21:28;;;;;;;20.27;11.95;;;;;;;;;;5001515;28;20180;-85
2022/03/15 08:23:54;;;;;;;16.88;10.52;;;;;;;;;;5001826;28;20187;-86
2022/03/15 08:26:20;;;;;;;19.05;11.05;;;;;;;;;;5004485;28;20218;-86
2022/03/15 08:28:48;;;;;;;27.63;12.30;;;;;;;;;;5017709;28;20269;-86
2022/03/15 08:31:14;;;;;;;16.42;11.77;;;;;;;;;;5016485;28;20195;-82
2022/03/15 08:33:40;;;;;;;29.30;12.32;;;;;;;;;;5001440;28;20650;-82
2022/03/15 08:36:06;;;;;;;16.05;10.48;;;;;;;;;;4996991;28;20191;-81
2022/03/15 08:38:32;;;;;;;16.48;10.77;;;;;;;;;;5001770;28;20183;-82
2022/03/15 08:40:58;;;;;;;16.23;11.43;;;;;;;;;;4987129;28;20191;-81
2022/03/15 08:43:25;;;;;;;15.52;10.85;;;;;;;;;;4998731;28;20178;-82
2022/03/15 08:45:52;;;;;;;18.33;11.90;;;;;;;;;;5016346;28;20180;-83
2022/03/15 08:48:18;;;;;;;18.02;10.38;;;;;;;;;;5001612;28;20210;-80
2022/03/15 08:50:44;;;;;;;16.70;11.27;;;;;;;;;;4999483;28;20184;-81
2022/03/15 08:53:10;;;;;;;17.60;11.18;;;;;;;;;;5000718;28;20242;-82
2022/03/15 08:55:36;;;;;;;18.17;11.23;;;;;;;;;;4999671;28;20224;-81
2022/03/15 08:58:03;;;;;;;13.23;11.30;;;;;;;;;;5015837;28;20191;-81
2022/03/15 09:00:29;;;;;;;16.60;12.02;;;;;;;;;;5000224;28;20175;-82
2022/03/15 09:02:55;;;;;;;16.48;12.13;;;;;;;;;;5002066;28;20195;-82
2022/03/15 09:05:21;;;;;;;14.93;11.25;;;;;;;;;;5001249;28;20187;-81
2022/03/15 09:07:52;;;;;;;24.58;12.73;;;;;;;;;;5002391;28;20210;-81
2022/03/15 09:10:21;;;;;;;21.05;12.25;;;;;;;;;;4999899;28;20180;-81
2022/03/15 09:12:48;;;;;;;23.30;12.50;;;;;;;;;;5001520;28;20179;-81
2022/03/15 09:15:14;;;;;;;21.00;12.05;;;;;;;;;;5004519;28;20180;-81
2022/03/15 09:17:41;;;;;;;19.83;11.80;;;;;;;;;;5016556;28;20203;-81
2022/03/15 09:20:08;;;;;;;15.55;10.80;;;;;;;;;;5016467;28;20187;-81
2022/03/15 09:22:34;;;;;;;14.80;11.70;;;;;;;;;;5018484;28;20186;-82
2022/03/15 09:25:00;;;;;;;17.08;10.90;;;;;;;;;;5003294;28;20675;-82
2022/03/15 09:27:26;;;;;;;20.83;10.50;;;;;;;;;;4993013;28;20239;-82
2022/03/15 09:29:54;;;;;;;17.00;11.87;;;;;;;;;;4995285;28;20186;-81
2022/03/15 09:32:20;;;;;;;16.25;11.18;;;;;;;;;;5017025;28;20652;-82
2022/03/15 09:34:46;;;;;;;19.45;12.35;;;;;;;;;;5002315;28;20187;-83
2022/03/15 09:37:12;;;;;;;17.70;12.05;;;;;;;;;;5006208;28;20202;-82
2022/03/15 09:39:38;;;;;;;18.20;13.02;;;;;;;;;;5012068;28;20218;-83
2022/03/15 09:42:08;;;;;;;16.83;13.13;;;;;;;;;;5005449;28;20218;-83
2022/03/15 09:44:35;;;;;;;15.90;11.27;;;;;;;;;;5001633;28;20466;-82
2022/03/15 09:47:03;;;;;;;17.95;13.05;;;;;;;;;;4992622;28;20206;-82
2022/03/15 09:49:29;;;;;;;13.73;10.85;;;;;;;;;;5004051;28;20617;-82
2022/03/15 09:51:56;;;;;;;15.70;10.75;;;;;;;;;;5000573;28;20262;-83
2022/03/15 09:54:24;;;;;;;13.80;11.52;;;;;;;;;;5003110;28;20191;-82
2022/03/15 09:56:51;;;;;;;18.58;13.88;;;;;;;;;;5006570;28;20667;-81
2022/03/15 09:59:18;;;;;;;18.98;12.95;;;;;;;;;;5014328;28;20192;-82
2022/03/15 10:01:45;;;;;;;22.55;13.70;;;;;;;;;;5002774;28;20183;-82
2022/03/15 10:04:11;;;;;;;25.65;14.38;;;;;;;;;;5000080;28;20187;-82
2022/03/15 10:06:38;;;;;;;19.40;13.90;;;;;;;;;;4999015;28;20747;-82
2022/03/15 10:09:05;;;;;;;19.55;13.18;;;;;;;;;;5000240;28;20179;-82
2022/03/15 10:11:31;;;;;;;19.70;11.82;;;;;;;;;;5001678;28;20214;-82
2022/03/15 10:13:58;;;;;;;13.63;11.35;;;;;;;;;;5001525;28;20226;-82
2022/03/15 10:16:30;;;;;;;18.52;11.70;;;;;;;;;;5007058;28;20655;-81
2022/03/15 10:18:57;;;;;;;14.27;10.35;;;;;;;;;;5021962;28;20226;-82
2022/03/15 10:21:27;;;;;;;17.33;11.45;;;;;;;;;;5002820;28;20251;-82
2022/03/15 10:23:58;;;;;;;15.68;11.70;;;;;;;;;;5003017;28;20187;-82
2022/03/15 10:26:28;;;;;;;17.83;12.40;;;;;;;;;;5004335;28;20908;-81
2022/03/15 10:28:56;;;;;;;19.00;13.25;;;;;;;;;;5003270;28;20187;-81
2022/03/15 10:31:23;;;;;;;14.43;11.10;;;;;;;;;;5007515;28;20175;-82
2022/03/15 10:33:51;;;;;;;13.55;11.25;;;;;;;;;;5003589;28;20761;-82
2022/03/15 10:36:17;;;;;;;16.35;11.70;;;;;;;;;;5004798;28;20210;-83
2022/03/15 10:38:47;;;;;;;20.60;12.57;;;;;;;;;;5003131;28;20210;-83
2022/03/15 10:41:16;;;;;;;14.52;12.13;;;;;;;;;;4999412;28;22203;-83
2022/03/15 10:43:43;;;;;;;19.15;13.90;;;;;;;;;;5019561;28;20309;-83
2022/03/15 10:46:10;;;;;;;15.13;12.10;;;;;;;;;;5011590;28;20203;-83
2022/03/15 10:48:37;;;;;;;16.50;13.23;;;;;;;;;;5002047;28;20215;-82
2022/03/15 10:51:03;;;;;;;15.55;12.88;;;;;;;;;;4998208;28;20392;-83
2022/03/15 10:53:45;;;;;;;15.93;12.38;;;;;;;;;;5003951;28;20247;-82
2022/03/15 10:56:22;;;;;;;20.70;12.95;;;;;;;;;;5017346;28;20176;-83
2022/03/15 10:58:48;;;;;;;17.65;12.30;;;;;;;;;;5005685;28;20185;-83
2022/03/15 11:01:17;;;;;;;22.70;12.57;;;;;;;;;;5022105;28;20183;-83
2022/03/15 11:04:12;;;;;;;18.60;14.57;;;;;;;;;;5006319;28;20444;-82
2022/03/15 11:06:40;;;;;;;17.73;15.00;;;;;;;;;;5001777;28;20227;-83
2022/03/15 11:09:17;;;;;;;22.70;14.95;;;;;;;;;;5004107;28;20186;-83
2022/03/15 11:11:45;;;;;;;22.00;14.90;;;;;;;;;;5013139;28;20284;-83
2022/03/15 11:14:11;;;;;;;13.88;12.38;;;;;;;;;;4991261;28;20881;-82
2022/03/15 11:16:38;;;;;;;21.90;14.82;;;;;;;;;;5020584;28;20573;-83
2022/03/15 11:19:05;;;;;;;18.08;14.40;;;;;;;;;;5006924;28;20265;-83
2022/03/15 11:21:34;;;;;;;18.98;15.23;;;;;;;;;;5015614;28;20199;-83
2022/03/15 11:24:01;;;;;;;19.10;14.02;;;;;;;;;;5016469;28;20195;-83
2022/03/15 11:26:33;;;;;;;16.45;14.75;;;;;;;;;;4992770;28;20206;-83
2022/03/15 11:28:59;;;;;;;19.63;14.95;;;;;;;;;;5005346;28;20182;-83
2022/03/15 11:31:25;;;;;;;19.63;15.63;;;;;;;;;;5020560;28;20175;-83
2022/03/15 11:33:54;;;;;;;19.55;15.35;;;;;;;;;;5017602;28;20198;-83
2022/03/15 11:36:21;;;;;;;21.90;15.50;;;;;;;;;;5008460;28;20183;-84
2022/03/15 11:38:47;;;;;;;19.92;14.50;;;;;;;;;;4993820;28;20286;-83
2022/03/15 11:41:13;;;;;;;22.05;14.93;;;;;;;;;;5019087;28;20184;-83
2022/03/15 11:43:50;;;;;;;21.08;15.38;;;;;;;;;;5019513;28;20239;-84
2022/03/15 11:46:46;;;;;;;22.00;16.67;;;;;;;;;;5020525;28;20167;-84
2022/03/15 11:49:31;;;;;;;21.20;16.02;;;;;;;;;;5016699;28;20645;-84
2022/03/15 11:52:08;;;;;;;20.63;16.52;;;;;;;;;;5018779;28;20182;-84
2022/03/15 11:54:34;;;;;;;18.88;15.00;;;;;;;;;;5015354;28;20250;-84
2022/03/15 11:57:03;;;;;;;21.58;17.15;;;;;;;;;;5014787;28;20198;-84
2022/03/15 11:59:45;;;;;;;25.00;17.98;;;;;;;;;;5018111;28;20191;-84
2022/03/15 12:02:11;;;;;;;21.67;16.30;;;;;;;;;;5002214;28;20194;-84
2022/03/15 12:04:44;;;;;;;20.42;17.92;;;;;;;;;;5014866;28;20265;-82
2022/03/15 12:07:12;;;;;;;20.40;15.27;;;;;;;;;;5012177;28;20218;-83
2022/03/15 12:09:45;;;;;;;19.88;16.08;;;;;;;;;;4998767;28;20263;-83
2022/03/15 12:12:11;;;;;;;20.55;15.68;;;;;;;;;;5001716;28;20184;-83
2022/03/15 12:14:43;;;;;;;21.65;15.65;;;;;;;;;;5001667;28;20186;-83
2022/03/15 12:17:12;;;;;;;23.92;15.77;;;;;;;;;;5017669;28;20190;-83
2022/03/15 12:19:41;;;;;;;17.42;14.45;;;;;;;;;;5002709;28;20175;-82
2022/03/15 12:22:11;;;;;;;20.75;14.20;;;;;;;;;;5018474;28;20187;-84
2022/03/15 12:24:41;;;;;;;17.45;12.93;;;;;;;;;;5001822;28;20186;-83
2022/03/15 12:27:09;;;;;;;17.70;13.35;;;;;;;;;;5019012;28;20246;-83
2022/03/15 12:29:36;;;;;;;17.13;12.95;;;;;;;;;;5002406;28;20187;-84
2022/03/15 12:32:13;;;;;;;16.98;13.52;;;;;;;;;;5003435;28;20175;-84
2022/03/15 12:34:41;;;;;;;18.85;13.32;;;;;;;;;;5019243;28;20171;-84
2022/03/15 12:37:07;;;;;;;18.42;13.80;;;;;;;;;;5017457;28;20195;-85
2022/03/15 12:39:33;;;;;;;19.52;13.77;;;;;;;;;;5002578;28;20241;-85
2022/03/15 12:42:17;;;;;;;18.17;13.88;;;;;;;;;;4998703;28;20231;-84
2022/03/15 12:44:51;;;;;;;17.42;14.07;;;;;;;;;;4992419;28;20187;-85
2022/03/15 12:47:26;;;;;;;19.95;14.95;;;;;;;;;;5015477;28;20203;-85
2022/03/15 12:50:24;;;;;;;28.73;16.40;;;;;;;;;;5000108;28;20183;-84
2022/03/15 12:52:54;;;;;;;16.70;14.85;;;;;;;;;;5000507;28;20231;-85
2022/03/15 12:55:20;;;;;;;17.63;14.23;;;;;;;;;;4982140;28;20183;-84
2022/03/15 12:57:47;;;;;;;15.50;13.88;;;;;;;;;;4983010;28;20444;-85
2022/03/15 13:00:18;;;;;;;15.02;13.05;;;;;;;;;;4979973;28;20183;-85
2022/03/15 13:02:47;;;;;;;16.30;13.80;;;;;;;;;;4995283;28;20191;-84
2022/03/15 13:05:17;;;;;;;17.45;12.70;;;;;;;;;;4983957;28;20184;-85
2022/03/15 13:07:44;;;;;;;15.27;12.30;;;;;;;;;;4998891;28;20255;-83
2022/03/15 13:10:14;;;;;;;15.05;12.50;;;;;;;;;;4982620;28;20681;-85
2022/03/15 13:12:43;;;;;;;15.40;13.13;;;;;;;;;;4986624;28;20210;-85
2022/03/15 13:15:17;;;;;;;21.83;14.80;;;;;;;;;;4983689;28;20267;-85
2022/03/15 13:17:50;;;;;;;16.65;13.15;;;;;;;;;;4981412;28;20320;-84
2022/03/15 13:20:26;;;;;;;19.55;13.23;;;;;;;;;;4986977;28;20190;-85
2022/03/15 13:23:02;;;;;;;18.17;14.50;;;;;;;;;;4998951;28;20209;-84
2022/03/15 13:25:37;;;;;;;19.52;13.70;;;;;;;;;;4996133;28;20179;-84
2022/03/15 13:28:24;;;;;;;14.73;12.35;;;;;;;;;;4995418;28;20481;-84
2022/03/15 13:30:52;;;;;;;14.75;11.95;;;;;;;;;;5002140;28;20182;-84
2022/03/15 13:33:27;;;;;;;16.83;11.65;;;;;;;;;;5015819;28;20588;-84
2022/03/15 13:36:01;;;;;;;17.55;11.55;;;;;;;;;;5017191;28;20237;-84
2022/03/15 13:38:28;;;;;;;17.67;12.48;;;;;;;;;;5013621;28;20191;-84
2022/03/15 13:40:55;;;;;;;17.73;11.15;;;;;;;;;;4992253;28;20289;-84
2022/03/15 13:43:22;;;;;;;16.90;11.00;;;;;;;;;;4992232;28;20172;-84
2022/03/15 13:45:48;;;;;;;12.50;11.20;;;;;;;;;;4990807;28;20577;-84
2022/03/15 13:48:25;;;;;;;11.73;10.52;;;;;;;;;;4995680;28;20290;-84
2022/03/15 13:51:03;;;;;;;12.48;11.27;;;;;;;;;;4994235;28;20190;-84
2022/03/15 13:53:31;;;;;;;16.65;12.07;;;;;;;;;;5004317;28;20194;-83
2022/03/15 13:56:06;;;;;;;14.63;11.35;;;;;;;;;;5005140;28;20187;-83
2022/03/15 13:58:32;;;;;;;18.15;10.98;;;;;;;;;;5021407;28;20176;-83
2022/03/15 14:01:03;;;;;;;13.10;11.30;;;;;;;;;;5004262;28;20278;-85
2022/03/15 14:03:30;;;;;;;14.50;11.60;;;;;;;;;;4999066;28;20202;-84
2022/03/15 14:06:07;;;;;;;13.52;11.63;;;;;;;;;;4998459;28;20273;-85
2022/03/15 14:08:43;;;;;;;12.23;8.52;;;;;;;;;;4993003;28;20202;-85
2022/03/15 14:11:10;;;;;;;12.15;9.75;;;;;;;;;;5002195;28;20214;-86
2022/03/15 14:13:36;;;;;;;13.25;9.10;;;;;;;;;;5007133;28;20185;-85
2022/03/15 14:16:14;;;;;;;11.82;8.73;;;;;;;;;;5000178;28;20173;-85
2022/03/15 14:18:51;;;;;;;9.43;6.78;;;;;;;;;;5004649;28;20244;-85
2022/03/15 14:21:21;;;;;;;9.73;7.75;;;;;;;;;;5005410;28;20206;-85
2022/03/15 14:23:57;;;;;;;12.32;8.57;;;;;;;;;;5014440;28;20869;-84
2022/03/15 14:26:27;;;;;;;9.40;7.57;;;;;;;;;;4999395;28;20279;-84
2022/03/15 14:28:57;;;;;;;8.52;7.72;;;;;;;;;;5005795;28;20188;-84
2022/03/15 14:31:32;;;;;;;9.63;7.60;;;;;;;;;;5021489;28;20313;-84